sensor_id;sensor_type;location;lat;lon;timestamp;P1;durP1;ratioP1;P2;durP2;ratioP2
20557;SDS011;10437;48.156;11.530;2023-05-18T00:01:58;8.90;;;4.18;;
20557;SDS011;10437;48.156;11.530;2023-05-18T00:04:25;8.07;;;3.30;;
20557;SDS011;10437;48.156;11.530;2023-05-18T00:06:53;8.90;;;3.60;;
20557;SDS011;10437;48.156;11.530;2023-05-18T00:09:22;9.13;;;3.63;;
20557;SDS011;10437;48.156;11.530;2023-05-18T00:11:51;10.52;;;3.75;;
20557;SDS011;10437;48.156;11.530;2023-05-18T00:14:18;9.80;;;3.97;;
20557;SDS011;10437;48.156;11.530;2023-05-18T00:16:46;9.50;;;3.70;;
20557;SDS011;10437;48.156;11.530;2023-05-18T00:19:13;10.00;;;3.80;;
20557;SDS011;10437;48.156;11.530;2023-05-18T00:21:40;9.17;;;3.93;;
20557;SDS011;10437;48.156;11.530;2023-05-18T00:24:07;8.27;;;3.60;;
20557;SDS011;10437;48.156;11.530;2023-05-18T00:26:36;11.00;;;4.20;;
20557;SDS011;10437;48.156;11.530;2023-05-18T00:29:05;15.47;;;4.00;;
20557;SDS011;10437;48.156;11.530;2023-05-18T00:31:32;6.80;;;3.37;;
20557;SDS011;10437;48.156;11.530;2023-05-18T00:34:00;9.10;;;3.97;;
20557;SDS011;10437;48.156;11.530;2023-05-18T00:36:28;11.50;;;4.10;;
20557;SDS011;10437;48.156;11.530;2023-05-18T00:38:56;11.30;;;3.80;;
20557;SDS011;10437;48.156;11.530;2023-05-18T00:41:23;10.07;;;3.93;;
20557;SDS011;10437;48.156;11.530;2023-05-18T00:43:50;10.53;;;3.70;;
20557;SDS011;10437;48.156;11.530;2023-05-18T00:46:19;10.57;;;3.70;;
20557;SDS011;10437;48.156;11.530;2023-05-18T00:48:46;10.03;;;3.93;;
20557;SDS011;10437;48.156;11.530;2023-05-18T00:51:14;9.40;;;3.70;;
20557;SDS011;10437;48.156;11.530;2023-05-18T00:53:41;9.23;;;3.90;;
20557;SDS011;10437;48.156;11.530;2023-05-18T00:56:09;10.27;;;3.77;;
20557;SDS011;10437;48.156;11.530;2023-05-18T00:58:37;7.72;;;3.63;;
20557;SDS011;10437;48.156;11.530;2023-05-18T01:01:05;7.38;;;3.60;;
20557;SDS011;10437;48.156;11.530;2023-05-18T01:03:35;8.30;;;3.65;;
20557;SDS011;10437;48.156;11.530;2023-05-18T01:06:03;10.07;;;4.27;;
20557;SDS011;10437;48.156;11.530;2023-05-18T01:08:30;7.40;;;3.63;;
20557;SDS011;10437;48.156;11.530;2023-05-18T01:11:01;12.03;;;4.30;;
20557;SDS011;10437;48.156;11.530;2023-05-18T01:13:33;11.50;;;3.97;;
20557;SDS011;10437;48.156;11.530;2023-05-18T01:16:01;9.82;;;3.95;;
20557;SDS011;10437;48.156;11.530;2023-05-18T01:18:30;9.50;;;3.95;;
20557;SDS011;10437;48.156;11.530;2023-05-18T01:21:03;8.53;;;3.63;;
20557;SDS011;10437;48.156;11.530;2023-05-18T01:26:33;10.70;;;3.93;;
20557;SDS011;10437;48.156;11.530;2023-05-18T01:29:04;11.88;;;3.97;;
20557;SDS011;10437;48.156;11.530;2023-05-18T01:31:34;9.73;;;4.03;;
20557;SDS011;10437;48.156;11.530;2023-05-18T01:34:01;11.77;;;4.40;;
20557;SDS011;10437;48.156;11.530;2023-05-18T01:36:28;8.10;;;3.77;;
20557;SDS011;10437;48.156;11.530;2023-05-18T01:38:55;9.43;;;4.10;;
20557;SDS011;10437;48.156;11.530;2023-05-18T01:41:25;11.97;;;3.77;;
20557;SDS011;10437;48.156;11.530;2023-05-18T01:43:58;7.53;;;3.90;;
20557;SDS011;10437;48.156;11.530;2023-05-18T01:46:31;10.53;;;3.70;;
20557;SDS011;10437;48.156;11.530;2023-05-18T01:49:05;7.23;;;3.60;;
20557;SDS011;10437;48.156;11.530;2023-05-18T01:51:39;8.07;;;3.83;;
20557;SDS011;10437;48.156;11.530;2023-05-18T01:54:07;7.80;;;4.00;;
20557;SDS011;10437;48.156;11.530;2023-05-18T01:56:36;10.40;;;4.00;;
20557;SDS011;10437;48.156;11.530;2023-05-18T01:59:06;8.37;;;3.77;;
20557;SDS011;10437;48.156;11.530;2023-05-18T02:01:33;9.50;;;3.80;;
20557;SDS011;10437;48.156;11.530;2023-05-18T02:04:00;9.20;;;3.73;;
20557;SDS011;10437;48.156;11.530;2023-05-18T02:06:27;8.40;;;3.67;;
20557;SDS011;10437;48.156;11.530;2023-05-18T02:08:55;9.93;;;3.87;;
20557;SDS011;10437;48.156;11.530;2023-05-18T02:11:23;12.07;;;4.50;;
20557;SDS011;10437;48.156;11.530;2023-05-18T02:13:50;8.47;;;3.70;;
20557;SDS011;10437;48.156;11.530;2023-05-18T02:16:18;8.63;;;4.13;;
20557;SDS011;10437;48.156;11.530;2023-05-18T02:18:45;8.30;;;4.47;;
20557;SDS011;10437;48.156;11.530;2023-05-18T02:21:13;11.47;;;4.20;;
20557;SDS011;10437;48.156;11.530;2023-05-18T02:23:40;10.07;;;3.73;;
20557;SDS011;10437;48.156;11.530;2023-05-18T02:26:07;13.50;;;4.40;;
20557;SDS011;10437;48.156;11.530;2023-05-18T02:28:34;9.40;;;4.30;;
20557;SDS011;10437;48.156;11.530;2023-05-18T02:31:05;11.20;;;3.77;;
20557;SDS011;10437;48.156;11.530;2023-05-18T02:33:33;8.13;;;4.07;;
20557;SDS011;10437;48.156;11.530;2023-05-18T02:36:04;11.00;;;4.47;;
20557;SDS011;10437;48.156;11.530;2023-05-18T02:38:32;9.57;;;4.20;;
20557;SDS011;10437;48.156;11.530;2023-05-18T02:41:01;10.80;;;4.20;;
20557;SDS011;10437;48.156;11.530;2023-05-18T02:43:29;9.67;;;4.00;;
20557;SDS011;10437;48.156;11.530;2023-05-18T02:45:56;12.50;;;4.17;;
20557;SDS011;10437;48.156;11.530;2023-05-18T02:48:23;8.33;;;4.00;;
20557;SDS011;10437;48.156;11.530;2023-05-18T02:50:51;11.87;;;4.20;;
20557;SDS011;10437;48.156;11.530;2023-05-18T02:53:19;10.17;;;4.10;;
20557;SDS011;10437;48.156;11.530;2023-05-18T02:55:46;9.97;;;4.23;;
20557;SDS011;10437;48.156;11.530;2023-05-18T02:58:13;11.27;;;4.73;;
20557;SDS011;10437;48.156;11.530;2023-05-18T03:00:40;10.67;;;4.57;;
20557;SDS011;10437;48.156;11.530;2023-05-18T03:03:07;11.00;;;4.70;;
20557;SDS011;10437;48.156;11.530;2023-05-18T03:05:39;6.87;;;4.20;;
20557;SDS011;10437;48.156;11.530;2023-05-18T03:08:08;8.83;;;4.27;;
20557;SDS011;10437;48.156;11.530;2023-05-18T03:10:35;8.97;;;4.23;;
20557;SDS011;10437;48.156;11.530;2023-05-18T03:13:03;7.63;;;4.33;;
20557;SDS011;10437;48.156;11.530;2023-05-18T03:15:30;9.97;;;4.60;;
20557;SDS011;10437;48.156;11.530;2023-05-18T03:17:57;8.87;;;4.67;;
20557;SDS011;10437;48.156;11.530;2023-05-18T03:20:24;11.27;;;4.33;;
20557;SDS011;10437;48.156;11.530;2023-05-18T03:22:52;17.00;;;5.13;;
20557;SDS011;10437;48.156;11.530;2023-05-18T03:25:20;10.13;;;4.50;;
20557;SDS011;10437;48.156;11.530;2023-05-18T03:27:49;7.87;;;4.33;;
20557;SDS011;10437;48.156;11.530;2023-05-18T03:30:16;12.97;;;4.90;;
20557;SDS011;10437;48.156;11.530;2023-05-18T03:32:44;8.00;;;4.57;;
20557;SDS011;10437;48.156;11.530;2023-05-18T03:35:12;9.43;;;4.57;;
20557;SDS011;10437;48.156;11.530;2023-05-18T03:37:39;10.93;;;4.70;;
20557;SDS011;10437;48.156;11.530;2023-05-18T03:40:10;8.33;;;4.77;;
20557;SDS011;10437;48.156;11.530;2023-05-18T03:42:40;9.00;;;4.10;;
20557;SDS011;10437;48.156;11.530;2023-05-18T03:45:07;10.33;;;4.80;;
20557;SDS011;10437;48.156;11.530;2023-05-18T03:47:35;10.97;;;4.63;;
20557;SDS011;10437;48.156;11.530;2023-05-18T03:50:02;11.00;;;4.73;;
20557;SDS011;10437;48.156;11.530;2023-05-18T03:52:30;9.73;;;5.00;;
20557;SDS011;10437;48.156;11.530;2023-05-18T03:54:58;8.27;;;4.50;;
20557;SDS011;10437;48.156;11.530;2023-05-18T03:57:26;9.60;;;4.67;;
20557;SDS011;10437;48.156;11.530;2023-05-18T03:59:54;11.67;;;4.73;;
20557;SDS011;10437;48.156;11.530;2023-05-18T04:02:21;10.07;;;4.87;;
20557;SDS011;10437;48.156;11.530;2023-05-18T04:04:49;12.13;;;5.20;;
20557;SDS011;10437;48.156;11.530;2023-05-18T04:07:18;11.57;;;5.30;;
20557;SDS011;10437;48.156;11.530;2023-05-18T04:09:48;10.33;;;5.07;;
20557;SDS011;10437;48.156;11.530;2023-05-18T04:12:15;11.87;;;5.77;;
20557;SDS011;10437;48.156;11.530;2023-05-18T04:14:42;13.63;;;5.70;;
20557;SDS011;10437;48.156;11.530;2023-05-18T04:17:15;9.57;;;4.90;;
20557;SDS011;10437;48.156;11.530;2023-05-18T04:19:46;15.60;;;5.30;;
20557;SDS011;10437;48.156;11.530;2023-05-18T04:22:14;10.93;;;5.33;;
20557;SDS011;10437;48.156;11.530;2023-05-18T04:24:41;9.93;;;5.03;;
20557;SDS011;10437;48.156;11.530;2023-05-18T04:27:09;10.43;;;5.23;;
20557;SDS011;10437;48.156;11.530;2023-05-18T04:29:37;10.77;;;5.00;;
20557;SDS011;10437;48.156;11.530;2023-05-18T04:32:04;11.73;;;5.00;;
20557;SDS011;10437;48.156;11.530;2023-05-18T04:34:33;9.77;;;5.23;;
20557;SDS011;10437;48.156;11.530;2023-05-18T04:37:01;10.60;;;5.13;;
20557;SDS011;10437;48.156;11.530;2023-05-18T04:39:29;9.97;;;4.67;;
20557;SDS011;10437;48.156;11.530;2023-05-18T04:41:56;9.90;;;5.00;;
20557;SDS011;10437;48.156;11.530;2023-05-18T04:44:24;8.93;;;5.40;;
20557;SDS011;10437;48.156;11.530;2023-05-18T04:46:51;8.87;;;5.13;;
20557;SDS011;10437;48.156;11.530;2023-05-18T04:49:18;8.73;;;4.60;;
20557;SDS011;10437;48.156;11.530;2023-05-18T04:51:48;8.33;;;5.00;;
20557;SDS011;10437;48.156;11.530;2023-05-18T04:54:20;14.23;;;5.43;;
20557;SDS011;10437;48.156;11.530;2023-05-18T04:56:47;9.87;;;4.53;;
20557;SDS011;10437;48.156;11.530;2023-05-18T04:59:14;12.80;;;4.97;;
20557;SDS011;10437;48.156;11.530;2023-05-18T05:01:41;7.80;;;4.57;;
20557;SDS011;10437;48.156;11.530;2023-05-18T05:04:08;10.00;;;4.90;;
20557;SDS011;10437;48.156;11.530;2023-05-18T05:06:36;11.67;;;5.27;;
20557;SDS011;10437;48.156;11.530;2023-05-18T05:09:04;10.40;;;4.77;;
20557;SDS011;10437;48.156;11.530;2023-05-18T05:11:31;9.67;;;5.00;;
20557;SDS011;10437;48.156;11.530;2023-05-18T05:13:59;8.30;;;4.60;;
20557;SDS011;10437;48.156;11.530;2023-05-18T05:16:26;10.83;;;4.83;;
20557;SDS011;10437;48.156;11.530;2023-05-18T05:18:54;9.20;;;5.00;;
20557;SDS011;10437;48.156;11.530;2023-05-18T05:21:21;10.30;;;4.78;;
20557;SDS011;10437;48.156;11.530;2023-05-18T05:23:48;11.13;;;5.33;;
20557;SDS011;10437;48.156;11.530;2023-05-18T05:26:16;13.17;;;4.80;;
20557;SDS011;10437;48.156;11.530;2023-05-18T05:28:44;10.73;;;5.03;;
20557;SDS011;10437;48.156;11.530;2023-05-18T05:31:11;8.87;;;4.60;;
20557;SDS011;10437;48.156;11.530;2023-05-18T05:33:38;10.87;;;5.43;;
20557;SDS011;10437;48.156;11.530;2023-05-18T05:36:06;12.65;;;5.38;;
20557;SDS011;10437;48.156;11.530;2023-05-18T05:38:33;8.60;;;4.63;;
20557;SDS011;10437;48.156;11.530;2023-05-18T05:41:01;10.38;;;4.95;;
20557;SDS011;10437;48.156;11.530;2023-05-18T05:43:29;10.27;;;5.23;;
20557;SDS011;10437;48.156;11.530;2023-05-18T05:45:56;7.35;;;4.57;;
20557;SDS011;10437;48.156;11.530;2023-05-18T05:48:23;8.27;;;4.80;;
20557;SDS011;10437;48.156;11.530;2023-05-18T05:50:50;7.53;;;4.72;;
20557;SDS011;10437;48.156;11.530;2023-05-18T05:53:17;6.47;;;4.43;;
20557;SDS011;10437;48.156;11.530;2023-05-18T05:55:45;7.72;;;4.60;;
20557;SDS011;10437;48.156;11.530;2023-05-18T05:58:12;8.93;;;4.72;;
20557;SDS011;10437;48.156;11.530;2023-05-18T06:00:40;12.90;;;4.80;;
20557;SDS011;10437;48.156;11.530;2023-05-18T06:03:10;8.88;;;4.82;;
20557;SDS011;10437;48.156;11.530;2023-05-18T06:05:37;9.82;;;4.70;;
20557;SDS011;10437;48.156;11.530;2023-05-18T06:08:05;7.57;;;4.57;;
20557;SDS011;10437;48.156;11.530;2023-05-18T06:10:32;12.50;;;4.80;;
20557;SDS011;10437;48.156;11.530;2023-05-18T06:12:59;8.35;;;4.38;;
20557;SDS011;10437;48.156;11.530;2023-05-18T06:15:26;10.98;;;4.38;;
20557;SDS011;10437;48.156;11.530;2023-05-18T06:17:55;9.63;;;4.65;;
20557;SDS011;10437;48.156;11.530;2023-05-18T06:20:22;10.70;;;4.50;;
20557;SDS011;10437;48.156;11.530;2023-05-18T06:22:50;13.25;;;4.57;;
20557;SDS011;10437;48.156;11.530;2023-05-18T06:25:17;15.50;;;4.20;;
20557;SDS011;10437;48.156;11.530;2023-05-18T06:27:44;12.77;;;4.50;;
20557;SDS011;10437;48.156;11.530;2023-05-18T06:30:12;8.95;;;4.45;;
20557;SDS011;10437;48.156;11.530;2023-05-18T06:32:39;13.35;;;5.00;;
20557;SDS011;10437;48.156;11.530;2023-05-18T06:35:08;10.45;;;4.40;;
20557;SDS011;10437;48.156;11.530;2023-05-18T06:37:36;10.38;;;4.68;;
20557;SDS011;10437;48.156;11.530;2023-05-18T06:40:05;9.63;;;4.22;;
20557;SDS011;10437;48.156;11.530;2023-05-18T06:42:32;11.40;;;5.32;;
20557;SDS011;10437;48.156;11.530;2023-05-18T06:45:00;10.60;;;4.57;;
20557;SDS011;10437;48.156;11.530;2023-05-18T06:47:27;10.05;;;4.75;;
20557;SDS011;10437;48.156;11.530;2023-05-18T06:49:54;8.30;;;4.85;;
20557;SDS011;10437;48.156;11.530;2023-05-18T06:52:23;8.82;;;4.70;;
20557;SDS011;10437;48.156;11.530;2023-05-18T06:54:50;8.88;;;4.63;;
20557;SDS011;10437;48.156;11.530;2023-05-18T06:57:17;10.45;;;5.28;;
20557;SDS011;10437;48.156;11.530;2023-05-18T06:59:44;7.53;;;3.75;;
20557;SDS011;10437;48.156;11.530;2023-05-18T07:02:17;9.73;;;4.35;;
20557;SDS011;10437;48.156;11.530;2023-05-18T07:04:44;7.15;;;4.10;;
20557;SDS011;10437;48.156;11.530;2023-05-18T07:07:12;14.73;;;4.22;;
20557;SDS011;10437;48.156;11.530;2023-05-18T07:09:40;11.25;;;4.68;;
20557;SDS011;10437;48.156;11.530;2023-05-18T07:12:09;9.95;;;4.18;;
20557;SDS011;10437;48.156;11.530;2023-05-18T07:14:36;9.25;;;4.10;;
20557;SDS011;10437;48.156;11.530;2023-05-18T07:17:03;10.55;;;4.43;;
20557;SDS011;10437;48.156;11.530;2023-05-18T07:19:32;7.93;;;3.95;;
20557;SDS011;10437;48.156;11.530;2023-05-18T07:21:59;6.30;;;3.85;;
20557;SDS011;10437;48.156;11.530;2023-05-18T07:24:28;9.18;;;4.28;;
20557;SDS011;10437;48.156;11.530;2023-05-18T07:26:56;8.55;;;3.80;;
20557;SDS011;10437;48.156;11.530;2023-05-18T07:29:23;9.38;;;3.55;;
20557;SDS011;10437;48.156;11.530;2023-05-18T07:31:50;12.00;;;3.80;;
20557;SDS011;10437;48.156;11.530;2023-05-18T07:34:17;10.40;;;3.83;;
20557;SDS011;10437;48.156;11.530;2023-05-18T07:36:44;9.32;;;3.60;;
20557;SDS011;10437;48.156;11.530;2023-05-18T07:39:12;7.45;;;3.40;;
20557;SDS011;10437;48.156;11.530;2023-05-18T07:41:42;13.35;;;3.72;;
20557;SDS011;10437;48.156;11.530;2023-05-18T07:44:11;7.45;;;3.15;;
20557;SDS011;10437;48.156;11.530;2023-05-18T07:46:38;8.32;;;3.40;;
20557;SDS011;10437;48.156;11.530;2023-05-18T07:49:05;6.82;;;3.38;;
20557;SDS011;10437;48.156;11.530;2023-05-18T07:51:32;10.50;;;3.10;;
20557;SDS011;10437;48.156;11.530;2023-05-18T07:53:59;7.13;;;3.08;;
20557;SDS011;10437;48.156;11.530;2023-05-18T07:56:26;7.72;;;3.03;;
20557;SDS011;10437;48.156;11.530;2023-05-18T07:58:54;10.50;;;3.20;;
20557;SDS011;10437;48.156;11.530;2023-05-18T08:01:22;10.63;;;2.95;;
20557;SDS011;10437;48.156;11.530;2023-05-18T08:03:51;6.72;;;2.92;;
20557;SDS011;10437;48.156;11.530;2023-05-18T08:06:19;9.65;;;3.30;;
20557;SDS011;10437;48.156;11.530;2023-05-18T08:08:46;7.78;;;3.30;;
20557;SDS011;10437;48.156;11.530;2023-05-18T08:11:13;8.82;;;3.45;;
20557;SDS011;10437;48.156;11.530;2023-05-18T08:13:40;6.13;;;2.97;;
20557;SDS011;10437;48.156;11.530;2023-05-18T08:16:07;6.70;;;3.15;;
20557;SDS011;10437;48.156;11.530;2023-05-18T08:18:35;4.82;;;2.95;;
20557;SDS011;10437;48.156;11.530;2023-05-18T08:21:02;9.90;;;3.40;;
20557;SDS011;10437;48.156;11.530;2023-05-18T08:23:32;10.52;;;3.53;;
20557;SDS011;10437;48.156;11.530;2023-05-18T08:25:59;7.07;;;3.38;;
20557;SDS011;10437;48.156;11.530;2023-05-18T08:28:27;8.85;;;3.47;;
20557;SDS011;10437;48.156;11.530;2023-05-18T08:30:54;10.85;;;3.20;;
20557;SDS011;10437;48.156;11.530;2023-05-18T08:33:21;6.45;;;3.08;;
20557;SDS011;10437;48.156;11.530;2023-05-18T08:35:50;9.40;;;3.20;;
20557;SDS011;10437;48.156;11.530;2023-05-18T08:38:17;8.70;;;3.25;;
20557;SDS011;10437;48.156;11.530;2023-05-18T08:40:45;9.80;;;3.03;;
20557;SDS011;10437;48.156;11.530;2023-05-18T08:43:19;7.40;;;2.90;;
20557;SDS011;10437;48.156;11.530;2023-05-18T08:45:49;8.60;;;2.88;;
20557;SDS011;10437;48.156;11.530;2023-05-18T08:48:24;7.57;;;3.35;;
20557;SDS011;10437;48.156;11.530;2023-05-18T08:50:54;8.32;;;3.17;;
20557;SDS011;10437;48.156;11.530;2023-05-18T08:53:26;6.00;;;2.97;;
20557;SDS011;10437;48.156;11.530;2023-05-18T08:55:56;8.18;;;2.60;;
20557;SDS011;10437;48.156;11.530;2023-05-18T08:58:26;9.55;;;2.88;;
20557;SDS011;10437;48.156;11.530;2023-05-18T09:00:57;7.57;;;3.08;;
20557;SDS011;10437;48.156;11.530;2023-05-18T09:03:24;5.88;;;2.90;;
20557;SDS011;10437;48.156;11.530;2023-05-18T09:05:52;8.02;;;2.80;;
20557;SDS011;10437;48.156;11.530;2023-05-18T09:08:20;5.47;;;2.58;;
20557;SDS011;10437;48.156;11.530;2023-05-18T09:10:48;8.82;;;2.78;;
20557;SDS011;10437;48.156;11.530;2023-05-18T09:13:18;7.38;;;2.72;;
20557;SDS011;10437;48.156;11.530;2023-05-18T09:15:45;6.80;;;3.25;;
20557;SDS011;10437;48.156;11.530;2023-05-18T09:18:12;6.32;;;2.33;;
20557;SDS011;10437;48.156;11.530;2023-05-18T09:20:39;6.88;;;2.85;;
20557;SDS011;10437;48.156;11.530;2023-05-18T09:23:07;10.20;;;2.60;;
20557;SDS011;10437;48.156;11.530;2023-05-18T09:25:39;7.28;;;2.45;;
20557;SDS011;10437;48.156;11.530;2023-05-18T09:28:09;11.48;;;2.95;;
20557;SDS011;10437;48.156;11.530;2023-05-18T09:30:40;8.50;;;2.85;;
20557;SDS011;10437;48.156;11.530;2023-05-18T09:33:14;7.90;;;2.75;;
20557;SDS011;10437;48.156;11.530;2023-05-18T09:35:43;8.80;;;2.90;;
20557;SDS011;10437;48.156;11.530;2023-05-18T09:38:10;5.63;;;2.63;;
20557;SDS011;10437;48.156;11.530;2023-05-18T09:40:43;7.55;;;2.72;;
20557;SDS011;10437;48.156;11.530;2023-05-18T09:43:11;9.88;;;3.35;;
20557;SDS011;10437;48.156;11.530;2023-05-18T09:45:40;8.73;;;3.58;;
20557;SDS011;10437;48.156;11.530;2023-05-18T09:48:08;8.07;;;3.38;;
20557;SDS011;10437;48.156;11.530;2023-05-18T09:50:35;12.07;;;3.20;;
20557;SDS011;10437;48.156;11.530;2023-05-18T09:53:05;8.57;;;3.08;;
20557;SDS011;10437;48.156;11.530;2023-05-18T09:55:32;9.73;;;3.80;;
20557;SDS011;10437;48.156;11.530;2023-05-18T09:58:04;10.23;;;3.17;;
20557;SDS011;10437;48.156;11.530;2023-05-18T10:00:36;9.70;;;3.13;;
20557;SDS011;10437;48.156;11.530;2023-05-18T10:03:15;11.52;;;3.10;;
20557;SDS011;10437;48.156;11.530;2023-05-18T10:05:43;7.88;;;3.22;;
20557;SDS011;10437;48.156;11.530;2023-05-18T10:08:11;8.50;;;3.35;;
20557;SDS011;10437;48.156;11.530;2023-05-18T10:10:40;7.13;;;3.30;;
20557;SDS011;10437;48.156;11.530;2023-05-18T10:13:10;10.68;;;3.53;;
20557;SDS011;10437;48.156;11.530;2023-05-18T10:15:45;11.80;;;3.40;;
20557;SDS011;10437;48.156;11.530;2023-05-18T10:18:12;12.60;;;3.55;;
20557;SDS011;10437;48.156;11.530;2023-05-18T10:20:42;6.88;;;2.85;;
20557;SDS011;10437;48.156;11.530;2023-05-18T10:23:09;9.32;;;3.05;;
20557;SDS011;10437;48.156;11.530;2023-05-18T10:25:37;8.18;;;3.63;;
20557;SDS011;10437;48.156;11.530;2023-05-18T10:28:05;7.70;;;3.42;;
20557;SDS011;10437;48.156;11.530;2023-05-18T10:30:37;8.48;;;2.70;;
20557;SDS011;10437;48.156;11.530;2023-05-18T10:33:06;10.82;;;3.42;;
20557;SDS011;10437;48.156;11.530;2023-05-18T10:35:37;10.10;;;3.03;;
20557;SDS011;10437;48.156;11.530;2023-05-18T10:38:04;7.72;;;2.65;;
20557;SDS011;10437;48.156;11.530;2023-05-18T10:40:32;5.53;;;2.35;;
20557;SDS011;10437;48.156;11.530;2023-05-18T10:43:02;7.10;;;2.35;;
20557;SDS011;10437;48.156;11.530;2023-05-18T10:45:32;8.20;;;2.38;;
20557;SDS011;10437;48.156;11.530;2023-05-18T10:48:01;9.38;;;2.90;;
20557;SDS011;10437;48.156;11.530;2023-05-18T10:50:32;7.07;;;2.58;;
20557;SDS011;10437;48.156;11.530;2023-05-18T10:53:01;6.40;;;2.72;;
20557;SDS011;10437;48.156;11.530;2023-05-18T10:55:30;9.25;;;2.67;;
20557;SDS011;10437;48.156;11.530;2023-05-18T10:58:00;4.20;;;2.35;;
20557;SDS011;10437;48.156;11.530;2023-05-18T11:00:32;8.25;;;2.70;;
20557;SDS011;10437;48.156;11.530;2023-05-18T11:03:03;5.68;;;2.65;;
20557;SDS011;10437;48.156;11.530;2023-05-18T11:05:34;6.63;;;2.55;;
20557;SDS011;10437;48.156;11.530;2023-05-18T11:08:02;6.93;;;2.35;;
20557;SDS011;10437;48.156;11.530;2023-05-18T11:10:33;8.05;;;2.83;;
20557;SDS011;10437;48.156;11.530;2023-05-18T11:13:01;7.68;;;2.60;;
20557;SDS011;10437;48.156;11.530;2023-05-18T11:18:38;11.38;;;2.88;;
20557;SDS011;10437;48.156;11.530;2023-05-18T11:21:17;13.75;;;3.30;;
20557;SDS011;10437;48.156;11.530;2023-05-18T11:26:41;6.78;;;2.60;;
20557;SDS011;10437;48.156;11.530;2023-05-18T11:29:15;9.00;;;2.45;;
20557;SDS011;10437;48.156;11.530;2023-05-18T11:31:43;5.95;;;2.50;;
20557;SDS011;10437;48.156;11.530;2023-05-18T11:37:02;7.63;;;2.45;;
20557;SDS011;10437;48.156;11.530;2023-05-18T11:39:30;6.88;;;2.38;;
20557;SDS011;10437;48.156;11.530;2023-05-18T11:41:58;7.57;;;2.65;;
20557;SDS011;10437;48.156;11.530;2023-05-18T11:44:26;8.68;;;2.30;;
20557;SDS011;10437;48.156;11.530;2023-05-18T11:46:58;9.88;;;2.38;;
20557;SDS011;10437;48.156;11.530;2023-05-18T11:49:26;10.00;;;2.47;;
20557;SDS011;10437;48.156;11.530;2023-05-18T11:51:55;7.95;;;2.42;;
20557;SDS011;10437;48.156;11.530;2023-05-18T11:54:26;7.05;;;2.00;;
20557;SDS011;10437;48.156;11.530;2023-05-18T11:56:53;7.80;;;2.42;;
20557;SDS011;10437;48.156;11.530;2023-05-18T11:59:30;6.75;;;2.75;;
20557;SDS011;10437;48.156;11.530;2023-05-18T12:02:00;7.50;;;2.20;;
20557;SDS011;10437;48.156;11.530;2023-05-18T12:04:28;6.80;;;2.50;;
20557;SDS011;10437;48.156;11.530;2023-05-18T12:06:56;6.53;;;2.47;;
20557;SDS011;10437;48.156;11.530;2023-05-18T12:09:24;4.97;;;2.65;;
20557;SDS011;10437;48.156;11.530;2023-05-18T12:11:51;6.30;;;2.38;;
20557;SDS011;10437;48.156;11.530;2023-05-18T12:14:18;7.15;;;2.47;;
20557;SDS011;10437;48.156;11.530;2023-05-18T12:16:46;5.45;;;2.47;;
20557;SDS011;10437;48.156;11.530;2023-05-18T12:19:13;4.00;;;2.00;;
20557;SDS011;10437;48.156;11.530;2023-05-18T12:21:42;7.55;;;2.08;;
20557;SDS011;10437;48.156;11.530;2023-05-18T12:24:11;5.40;;;2.38;;
20557;SDS011;10437;48.156;11.530;2023-05-18T12:26:38;5.93;;;1.98;;
20557;SDS011;10437;48.156;11.530;2023-05-18T12:29:05;6.60;;;1.58;;
20557;SDS011;10437;48.156;11.530;2023-05-18T12:31:33;4.90;;;2.20;;
20557;SDS011;10437;48.156;11.530;2023-05-18T12:34:01;5.78;;;2.35;;
20557;SDS011;10437;48.156;11.530;2023-05-18T12:36:28;5.20;;;2.08;;
20557;SDS011;10437;48.156;11.530;2023-05-18T12:38:59;7.22;;;2.08;;
20557;SDS011;10437;48.156;11.530;2023-05-18T12:41:28;7.05;;;2.28;;
20557;SDS011;10437;48.156;11.530;2023-05-18T12:43:55;4.95;;;2.30;;
20557;SDS011;10437;48.156;11.530;2023-05-18T12:46:22;5.75;;;2.15;;
20557;SDS011;10437;48.156;11.530;2023-05-18T12:48:55;7.72;;;2.20;;
20557;SDS011;10437;48.156;11.530;2023-05-18T12:51:23;7.28;;;1.98;;
20557;SDS011;10437;48.156;11.530;2023-05-18T12:53:54;5.18;;;2.08;;
20557;SDS011;10437;48.156;11.530;2023-05-18T12:56:22;4.82;;;1.73;;
20557;SDS011;10437;48.156;11.530;2023-05-18T12:58:55;5.78;;;2.25;;
20557;SDS011;10437;48.156;11.530;2023-05-18T13:01:22;5.47;;;2.00;;
20557;SDS011;10437;48.156;11.530;2023-05-18T13:03:53;5.35;;;2.08;;
20557;SDS011;10437;48.156;11.530;2023-05-18T13:06:22;7.28;;;2.60;;
20557;SDS011;10437;48.156;11.530;2023-05-18T13:08:52;7.05;;;2.05;;
20557;SDS011;10437;48.156;11.530;2023-05-18T13:11:22;4.18;;;1.80;;
20557;SDS011;10437;48.156;11.530;2023-05-18T13:13:58;5.25;;;1.92;;
20557;SDS011;10437;48.156;11.530;2023-05-18T13:16:26;5.53;;;2.28;;
20557;SDS011;10437;48.156;11.530;2023-05-18T13:18:54;6.43;;;2.30;;
20557;SDS011;10437;48.156;11.530;2023-05-18T13:21:22;3.15;;;2.13;;
20557;SDS011;10437;48.156;11.530;2023-05-18T13:23:49;7.03;;;2.20;;
20557;SDS011;10437;48.156;11.530;2023-05-18T13:26:16;6.65;;;2.47;;
20557;SDS011;10437;48.156;11.530;2023-05-18T13:28:45;7.40;;;2.78;;
20557;SDS011;10437;48.156;11.530;2023-05-18T13:31:14;4.70;;;2.35;;
20557;SDS011;10437;48.156;11.530;2023-05-18T13:33:41;4.13;;;2.03;;
20557;SDS011;10437;48.156;11.530;2023-05-18T13:36:08;4.63;;;1.90;;
20557;SDS011;10437;48.156;11.530;2023-05-18T13:38:36;4.43;;;2.08;;
20557;SDS011;10437;48.156;11.530;2023-05-18T13:41:03;3.40;;;2.08;;
20557;SDS011;10437;48.156;11.530;2023-05-18T13:43:30;5.32;;;2.20;;
20557;SDS011;10437;48.156;11.530;2023-05-18T13:45:58;7.57;;;2.35;;
20557;SDS011;10437;48.156;11.530;2023-05-18T13:48:26;6.95;;;2.15;;
20557;SDS011;10437;48.156;11.530;2023-05-18T13:50:54;5.78;;;2.10;;
20557;SDS011;10437;48.156;11.530;2023-05-18T13:53:21;7.75;;;2.50;;
20557;SDS011;10437;48.156;11.530;2023-05-18T13:55:48;6.90;;;2.00;;
20557;SDS011;10437;48.156;11.530;2023-05-18T13:58:15;6.97;;;2.30;;
20557;SDS011;10437;48.156;11.530;2023-05-18T14:00:43;5.70;;;2.58;;
20557;SDS011;10437;48.156;11.530;2023-05-18T14:03:11;6.55;;;2.28;;
20557;SDS011;10437;48.156;11.530;2023-05-18T14:05:42;6.30;;;2.75;;
20557;SDS011;10437;48.156;11.530;2023-05-18T14:08:09;5.35;;;2.10;;
20557;SDS011;10437;48.156;11.530;2023-05-18T14:10:37;6.57;;;2.38;;
20557;SDS011;10437;48.156;11.530;2023-05-18T14:13:04;7.03;;;2.40;;
20557;SDS011;10437;48.156;11.530;2023-05-18T14:15:32;5.05;;;2.17;;
20557;SDS011;10437;48.156;11.530;2023-05-18T14:17:59;6.00;;;2.03;;
20557;SDS011;10437;48.156;11.530;2023-05-18T14:20:26;4.15;;;1.90;;
20557;SDS011;10437;48.156;11.530;2023-05-18T14:22:55;6.93;;;2.60;;
20557;SDS011;10437;48.156;11.530;2023-05-18T14:25:22;3.53;;;1.90;;
20557;SDS011;10437;48.156;11.530;2023-05-18T14:27:49;8.32;;;2.22;;
20557;SDS011;10437;48.156;11.530;2023-05-18T14:30:16;7.57;;;1.95;;
20557;SDS011;10437;48.156;11.530;2023-05-18T14:32:45;9.10;;;2.10;;
20557;SDS011;10437;48.156;11.530;2023-05-18T14:35:12;4.18;;;2.03;;
20557;SDS011;10437;48.156;11.530;2023-05-18T14:37:39;8.95;;;2.33;;
20557;SDS011;10437;48.156;11.530;2023-05-18T14:40:08;5.72;;;1.90;;
20557;SDS011;10437;48.156;11.530;2023-05-18T14:42:35;3.80;;;1.85;;
20557;SDS011;10437;48.156;11.530;2023-05-18T14:45:02;7.55;;;2.17;;
20557;SDS011;10437;48.156;11.530;2023-05-18T14:47:30;7.32;;;2.25;;
20557;SDS011;10437;48.156;11.530;2023-05-18T14:49:57;5.43;;;2.20;;